sensor_id;sensor_type;location;lat;lon;timestamp;P1;durP1;ratioP1;P2;durP2;ratioP2
58621;SDS011;44389;51.578;5.456;2023-08-20T00:01:21;0.05;;;0.05;;
58621;SDS011;44389;51.578;5.456;2023-08-20T00:03:49;0.00;;;0.00;;
58621;SDS011;44389;51.578;5.456;2023-08-20T00:06:16;0.00;;;0.00;;
58621;SDS011;44389;51.578;5.456;2023-08-20T00:08:42;0.10;;;0.10;;
58621;SDS011;44389;51.578;5.456;2023-08-20T00:11:07;0.00;;;0.00;;
58621;SDS011;44389;51.578;5.456;2023-08-20T00:13:33;0.00;;;0.00;;
58621;SDS011;44389;51.578;5.456;2023-08-20T00:15:58;0.10;;;0.10;;
58621;SDS011;44389;51.578;5.456;2023-08-20T00:18:24;0.10;;;0.10;;
58621;SDS011;44389;51.578;5.456;2023-08-20T00:20:50;0.00;;;0.00;;
58621;SDS011;44389;51.578;5.456;2023-08-20T00:23:15;0.00;;;0.00;;
58621;SDS011;44389;51.578;5.456;2023-08-20T00:25:41;0.10;;;0.10;;
58621;SDS011;44389;51.578;5.456;2023-08-20T00:28:06;0.00;;;0.00;;
58621;SDS011;44389;51.578;5.456;2023-08-20T00:30:32;0.10;;;0.10;;
58621;SDS011;44389;51.578;5.456;2023-08-20T00:32:57;0.10;;;0.10;;
58621;SDS011;44389;51.578;5.456;2023-08-20T00:35:22;0.10;;;0.10;;
58621;SDS011;44389;51.578;5.456;2023-08-20T00:37:48;0.10;;;0.10;;
58621;SDS011;44389;51.578;5.456;2023-08-20T00:40:13;0.10;;;0.10;;
58621;SDS011;44389;51.578;5.456;2023-08-20T00:42:39;0.10;;;0.10;;
58621;SDS011;44389;51.578;5.456;2023-08-20T00:45:04;0.10;;;0.10;;
58621;SDS011;44389;51.578;5.456;2023-08-20T00:47:30;0.10;;;0.10;;
58621;SDS011;44389;51.578;5.456;2023-08-20T00:49:56;0.10;;;0.10;;
58621;SDS011;44389;51.578;5.456;2023-08-20T00:52:21;0.10;;;0.10;;
58621;SDS011;44389;51.578;5.456;2023-08-20T00:54:47;0.00;;;0.00;;
58621;SDS011;44389;51.578;5.456;2023-08-20T00:57:14;0.10;;;0.10;;
58621;SDS011;44389;51.578;5.456;2023-08-20T00:59:43;0.10;;;0.10;;
58621;SDS011;44389;51.578;5.456;2023-08-20T01:02:09;0.10;;;0.10;;
58621;SDS011;44389;51.578;5.456;2023-08-20T01:04:35;0.10;;;0.10;;
58621;SDS011;44389;51.578;5.456;2023-08-20T01:12:09;0.00;;;0.00;;
58621;SDS011;44389;51.578;5.456;2023-08-20T01:14:35;0.10;;;0.10;;
58621;SDS011;44389;51.578;5.456;2023-08-20T01:17:01;0.00;;;0.00;;
58621;SDS011;44389;51.578;5.456;2023-08-20T01:19:26;0.10;;;0.10;;
58621;SDS011;44389;51.578;5.456;2023-08-20T01:30:32;0.17;;;0.10;;
58621;SDS011;44389;51.578;5.456;2023-08-20T01:32:59;0.10;;;0.10;;
58621;SDS011;44389;51.578;5.456;2023-08-20T01:35:24;0.10;;;0.10;;
58621;SDS011;44389;51.578;5.456;2023-08-20T01:37:51;0.03;;;0.03;;
58621;SDS011;44389;51.578;5.456;2023-08-20T01:40:17;0.03;;;0.03;;
58621;SDS011;44389;51.578;5.456;2023-08-20T01:42:42;0.10;;;0.10;;
58621;SDS011;44389;51.578;5.456;2023-08-20T01:45:08;0.10;;;0.10;;
58621;SDS011;44389;51.578;5.456;2023-08-20T01:47:33;0.10;;;0.10;;
58621;SDS011;44389;51.578;5.456;2023-08-20T01:49:59;0.10;;;0.10;;
58621;SDS011;44389;51.578;5.456;2023-08-20T01:52:24;0.10;;;0.10;;
58621;SDS011;44389;51.578;5.456;2023-08-20T01:54:50;0.10;;;0.10;;
58621;SDS011;44389;51.578;5.456;2023-08-20T01:57:16;0.00;;;0.00;;
58621;SDS011;44389;51.578;5.456;2023-08-20T01:59:42;0.05;;;0.05;;
58621;SDS011;44389;51.578;5.456;2023-08-20T02:02:07;0.00;;;0.00;;
58621;SDS011;44389;51.578;5.456;2023-08-20T02:04:33;0.00;;;0.00;;
58621;SDS011;44389;51.578;5.456;2023-08-20T02:06:58;0.10;;;0.10;;
58621;SDS011;44389;51.578;5.456;2023-08-20T02:09:24;0.10;;;0.10;;
58621;SDS011;44389;51.578;5.456;2023-08-20T02:11:49;0.00;;;0.00;;
58621;SDS011;44389;51.578;5.456;2023-08-20T02:14:15;0.00;;;0.00;;
58621;SDS011;44389;51.578;5.456;2023-08-20T02:16:40;0.10;;;0.10;;
58621;SDS011;44389;51.578;5.456;2023-08-20T02:19:06;0.10;;;0.10;;
58621;SDS011;44389;51.578;5.456;2023-08-20T02:21:31;0.10;;;0.10;;
58621;SDS011;44389;51.578;5.456;2023-08-20T02:23:57;0.10;;;0.10;;
58621;SDS011;44389;51.578;5.456;2023-08-20T02:26:22;0.10;;;0.10;;
58621;SDS011;44389;51.578;5.456;2023-08-20T02:28:48;0.10;;;0.10;;
58621;SDS011;44389;51.578;5.456;2023-08-20T02:31:13;0.00;;;0.00;;
58621;SDS011;44389;51.578;5.456;2023-08-20T02:33:38;0.00;;;0.00;;
58621;SDS011;44389;51.578;5.456;2023-08-20T02:36:04;0.00;;;0.00;;
58621;SDS011;44389;51.578;5.456;2023-08-20T02:38:29;0.00;;;0.00;;
58621;SDS011;44389;51.578;5.456;2023-08-20T02:40:55;0.00;;;0.00;;
58621;SDS011;44389;51.578;5.456;2023-08-20T02:43:21;0.10;;;0.10;;
58621;SDS011;44389;51.578;5.456;2023-08-20T02:45:46;0.10;;;0.10;;
58621;SDS011;44389;51.578;5.456;2023-08-20T02:48:12;0.05;;;0.05;;
58621;SDS011;44389;51.578;5.456;2023-08-20T02:50:38;0.10;;;0.10;;
58621;SDS011;44389;51.578;5.456;2023-08-20T02:53:03;0.10;;;0.10;;
58621;SDS011;44389;51.578;5.456;2023-08-20T02:55:30;0.00;;;0.00;;
58621;SDS011;44389;51.578;5.456;2023-08-20T02:57:55;0.10;;;0.10;;
58621;SDS011;44389;51.578;5.456;2023-08-20T03:00:20;0.10;;;0.10;;
58621;SDS011;44389;51.578;5.456;2023-08-20T03:02:46;0.10;;;0.10;;
58621;SDS011;44389;51.578;5.456;2023-08-20T03:05:11;0.10;;;0.10;;
58621;SDS011;44389;51.578;5.456;2023-08-20T03:07:36;0.10;;;0.10;;
58621;SDS011;44389;51.578;5.456;2023-08-20T03:10:02;0.00;;;0.00;;
58621;SDS011;44389;51.578;5.456;2023-08-20T03:12:28;0.10;;;0.10;;
58621;SDS011;44389;51.578;5.456;2023-08-20T03:14:53;0.10;;;0.10;;
58621;SDS011;44389;51.578;5.456;2023-08-20T03:17:19;0.03;;;0.03;;
58621;SDS011;44389;51.578;5.456;2023-08-20T03:19:54;0.10;;;0.10;;
58621;SDS011;44389;51.578;5.456;2023-08-20T03:22:21;0.10;;;0.10;;
58621;SDS011;44389;51.578;5.456;2023-08-20T03:24:47;0.10;;;0.10;;
58621;SDS011;44389;51.578;5.456;2023-08-20T03:27:13;0.10;;;0.10;;
58621;SDS011;44389;51.578;5.456;2023-08-20T03:29:38;0.10;;;0.10;;
58621;SDS011;44389;51.578;5.456;2023-08-20T03:32:03;0.10;;;0.10;;
58621;SDS011;44389;51.578;5.456;2023-08-20T03:34:29;0.05;;;0.05;;
58621;SDS011;44389;51.578;5.456;2023-08-20T03:36:54;0.10;;;0.10;;
58621;SDS011;44389;51.578;5.456;2023-08-20T03:39:19;0.10;;;0.10;;
58621;SDS011;44389;51.578;5.456;2023-08-20T03:41:45;0.10;;;0.10;;
58621;SDS011;44389;51.578;5.456;2023-08-20T03:44:10;0.10;;;0.10;;
58621;SDS011;44389;51.578;5.456;2023-08-20T03:46:35;0.10;;;0.10;;
58621;SDS011;44389;51.578;5.456;2023-08-20T03:49:01;0.10;;;0.10;;
58621;SDS011;44389;51.578;5.456;2023-08-20T03:51:26;0.10;;;0.10;;
58621;SDS011;44389;51.578;5.456;2023-08-20T03:53:51;0.10;;;0.10;;
58621;SDS011;44389;51.578;5.456;2023-08-20T03:56:17;0.10;;;0.10;;
58621;SDS011;44389;51.578;5.456;2023-08-20T03:58:42;0.10;;;0.10;;
58621;SDS011;44389;51.578;5.456;2023-08-20T04:01:07;0.10;;;0.10;;
58621;SDS011;44389;51.578;5.456;2023-08-20T04:03:33;0.10;;;0.10;;
58621;SDS011;44389;51.578;5.456;2023-08-20T04:05:58;0.10;;;0.10;;
58621;SDS011;44389;51.578;5.456;2023-08-20T04:08:23;0.10;;;0.10;;
58621;SDS011;44389;51.578;5.456;2023-08-20T04:10:49;0.10;;;0.10;;
58621;SDS011;44389;51.578;5.456;2023-08-20T04:13:14;0.10;;;0.10;;
58621;SDS011;44389;51.578;5.456;2023-08-20T04:15:41;0.10;;;0.10;;
58621;SDS011;44389;51.578;5.456;2023-08-20T04:18:06;0.10;;;0.10;;
58621;SDS011;44389;51.578;5.456;2023-08-20T04:20:32;0.03;;;0.03;;
58621;SDS011;44389;51.578;5.456;2023-08-20T04:22:57;0.10;;;0.10;;
58621;SDS011;44389;51.578;5.456;2023-08-20T04:25:23;0.10;;;0.10;;
58621;SDS011;44389;51.578;5.456;2023-08-20T04:27:48;0.10;;;0.10;;
58621;SDS011;44389;51.578;5.456;2023-08-20T04:30:13;0.10;;;0.10;;
58621;SDS011;44389;51.578;5.456;2023-08-20T04:32:39;0.10;;;0.10;;
58621;SDS011;44389;51.578;5.456;2023-08-20T04:35:04;0.10;;;0.10;;
58621;SDS011;44389;51.578;5.456;2023-08-20T04:37:30;0.10;;;0.10;;
58621;SDS011;44389;51.578;5.456;2023-08-20T04:39:55;0.10;;;0.10;;
58621;SDS011;44389;51.578;5.456;2023-08-20T04:42:20;0.10;;;0.10;;
58621;SDS011;44389;51.578;5.456;2023-08-20T04:44:46;0.10;;;0.10;;
58621;SDS011;44389;51.578;5.456;2023-08-20T04:47:11;0.10;;;0.10;;
58621;SDS011;44389;51.578;5.456;2023-08-20T04:49:40;0.10;;;0.10;;
58621;SDS011;44389;51.578;5.456;2023-08-20T04:52:05;0.10;;;0.10;;
58621;SDS011;44389;51.578;5.456;2023-08-20T04:54:30;0.10;;;0.10;;
58621;SDS011;44389;51.578;5.456;2023-08-20T04:56:56;0.10;;;0.10;;
58621;SDS011;44389;51.578;5.456;2023-08-20T04:59:21;0.10;;;0.10;;
58621;SDS011;44389;51.578;5.456;2023-08-20T05:01:47;0.10;;;0.10;;
58621;SDS011;44389;51.578;5.456;2023-08-20T05:04:12;0.10;;;0.10;;
58621;SDS011;44389;51.578;5.456;2023-08-20T05:06:38;0.13;;;0.13;;
58621;SDS011;44389;51.578;5.456;2023-08-20T05:09:03;0.10;;;0.10;;
58621;SDS011;44389;51.578;5.456;2023-08-20T05:11:29;0.10;;;0.10;;
58621;SDS011;44389;51.578;5.456;2023-08-20T05:13:57;0.10;;;0.10;;
58621;SDS011;44389;51.578;5.456;2023-08-20T05:16:23;0.10;;;0.10;;
58621;SDS011;44389;51.578;5.456;2023-08-20T05:18:48;0.10;;;0.10;;
58621;SDS011;44389;51.578;5.456;2023-08-20T05:21:13;0.10;;;0.10;;
58621;SDS011;44389;51.578;5.456;2023-08-20T05:23:39;0.10;;;0.10;;
58621;SDS011;44389;51.578;5.456;2023-08-20T05:26:05;0.10;;;0.10;;
58621;SDS011;44389;51.578;5.456;2023-08-20T05:28:32;0.10;;;0.10;;
58621;SDS011;44389;51.578;5.456;2023-08-20T05:30:58;0.10;;;0.10;;
58621;SDS011;44389;51.578;5.456;2023-08-20T05:33:23;0.10;;;0.10;;
58621;SDS011;44389;51.578;5.456;2023-08-20T05:35:49;0.10;;;0.10;;
58621;SDS011;44389;51.578;5.456;2023-08-20T05:38:14;0.10;;;0.10;;
58621;SDS011;44389;51.578;5.456;2023-08-20T05:40:39;0.00;;;0.00;;
58621;SDS011;44389;51.578;5.456;2023-08-20T05:43:05;0.10;;;0.10;;
58621;SDS011;44389;51.578;5.456;2023-08-20T05:45:30;0.10;;;0.10;;
58621;SDS011;44389;51.578;5.456;2023-08-20T05:47:55;0.10;;;0.10;;
58621;SDS011;44389;51.578;5.456;2023-08-20T05:50:21;0.10;;;0.10;;
58621;SDS011;44389;51.578;5.456;2023-08-20T05:52:46;0.10;;;0.10;;
58621;SDS011;44389;51.578;5.456;2023-08-20T05:55:11;0.10;;;0.10;;
58621;SDS011;44389;51.578;5.456;2023-08-20T05:57:37;0.10;;;0.10;;
58621;SDS011;44389;51.578;5.456;2023-08-20T06:00:03;0.10;;;0.10;;
58621;SDS011;44389;51.578;5.456;2023-08-20T06:02:29;0.10;;;0.10;;
58621;SDS011;44389;51.578;5.456;2023-08-20T06:04:55;0.10;;;0.10;;
58621;SDS011;44389;51.578;5.456;2023-08-20T06:07:20;0.10;;;0.10;;
58621;SDS011;44389;51.578;5.456;2023-08-20T06:09:45;0.10;;;0.10;;
58621;SDS011;44389;51.578;5.456;2023-08-20T06:12:11;0.10;;;0.10;;
58621;SDS011;44389;51.578;5.456;2023-08-20T06:14:36;0.10;;;0.10;;
58621;SDS011;44389;51.578;5.456;2023-08-20T06:17:02;0.10;;;0.10;;
58621;SDS011;44389;51.578;5.456;2023-08-20T06:19:27;0.10;;;0.10;;
58621;SDS011;44389;51.578;5.456;2023-08-20T06:21:54;0.10;;;0.10;;
58621;SDS011;44389;51.578;5.456;2023-08-20T06:24:19;0.10;;;0.10;;
58621;SDS011;44389;51.578;5.456;2023-08-20T06:26:44;0.10;;;0.10;;
58621;SDS011;44389;51.578;5.456;2023-08-20T06:29:10;0.10;;;0.10;;
58621;SDS011;44389;51.578;5.456;2023-08-20T06:31:35;0.10;;;0.10;;
58621;SDS011;44389;51.578;5.456;2023-08-20T06:34:00;0.10;;;0.10;;
58621;SDS011;44389;51.578;5.456;2023-08-20T06:36:26;0.00;;;0.00;;
58621;SDS011;44389;51.578;5.456;2023-08-20T06:38:51;0.10;;;0.10;;
58621;SDS011;44389;51.578;5.456;2023-08-20T06:41:17;0.10;;;0.10;;
58621;SDS011;44389;51.578;5.456;2023-08-20T06:43:43;0.10;;;0.10;;
58621;SDS011;44389;51.578;5.456;2023-08-20T06:46:08;0.10;;;0.10;;
58621;SDS011;44389;51.578;5.456;2023-08-20T06:48:34;0.00;;;0.00;;
58621;SDS011;44389;51.578;5.456;2023-08-20T06:51:07;0.00;;;0.00;;
58621;SDS011;44389;51.578;5.456;2023-08-20T06:53:36;0.10;;;0.10;;
58621;SDS011;44389;51.578;5.456;2023-08-20T06:56:02;0.10;;;0.10;;
58621;SDS011;44389;51.578;5.456;2023-08-20T06:58:27;0.10;;;0.10;;
58621;SDS011;44389;51.578;5.456;2023-08-20T07:00:53;0.00;;;0.00;;
58621;SDS011;44389;51.578;5.456;2023-08-20T07:03:18;0.00;;;0.00;;
58621;SDS011;44389;51.578;5.456;2023-08-20T07:05:44;0.00;;;0.00;;
58621;SDS011;44389;51.578;5.456;2023-08-20T07:08:09;0.00;;;0.00;;
58621;SDS011;44389;51.578;5.456;2023-08-20T07:10:34;0.10;;;0.10;;
58621;SDS011;44389;51.578;5.456;2023-08-20T07:13:00;0.00;;;0.00;;
58621;SDS011;44389;51.578;5.456;2023-08-20T07:15:25;0.00;;;0.00;;
58621;SDS011;44389;51.578;5.456;2023-08-20T07:17:50;0.10;;;0.10;;
58621;SDS011;44389;51.578;5.456;2023-08-20T07:20:16;0.05;;;0.05;;
58621;SDS011;44389;51.578;5.456;2023-08-20T07:22:41;0.00;;;0.00;;
58621;SDS011;44389;51.578;5.456;2023-08-20T07:25:07;0.00;;;0.00;;
58621;SDS011;44389;51.578;5.456;2023-08-20T07:27:33;0.00;;;0.00;;
58621;SDS011;44389;51.578;5.456;2023-08-20T07:29:58;0.00;;;0.00;;
58621;SDS011;44389;51.578;5.456;2023-08-20T07:32:24;0.00;;;0.00;;
58621;SDS011;44389;51.578;5.456;2023-08-20T07:34:49;0.08;;;0.08;;
58621;SDS011;44389;51.578;5.456;2023-08-20T07:37:14;0.00;;;0.00;;
58621;SDS011;44389;51.578;5.456;2023-08-20T07:39:40;0.00;;;0.00;;
58621;SDS011;44389;51.578;5.456;2023-08-20T07:42:05;0.00;;;0.00;;
58621;SDS011;44389;51.578;5.456;2023-08-20T07:44:31;0.00;;;0.00;;
58621;SDS011;44389;51.578;5.456;2023-08-20T07:46:56;0.00;;;0.00;;
58621;SDS011;44389;51.578;5.456;2023-08-20T07:49:22;0.00;;;0.00;;
58621;SDS011;44389;51.578;5.456;2023-08-20T07:51:47;0.00;;;0.00;;
58621;SDS011;44389;51.578;5.456;2023-08-20T07:54:13;0.00;;;0.00;;
58621;SDS011;44389;51.578;5.456;2023-08-20T07:56:39;0.00;;;0.00;;
58621;SDS011;44389;51.578;5.456;2023-08-20T07:59:04;0.00;;;0.00;;
58621;SDS011;44389;51.578;5.456;2023-08-20T08:01:30;0.00;;;0.00;;
58621;SDS011;44389;51.578;5.456;2023-08-20T08:03:55;0.00;;;0.00;;
58621;SDS011;44389;51.578;5.456;2023-08-20T08:06:21;0.05;;;0.05;;
58621;SDS011;44389;51.578;5.456;2023-08-20T08:08:48;0.00;;;0.00;;
58621;SDS011;44389;51.578;5.456;2023-08-20T08:11:14;0.00;;;0.00;;
58621;SDS011;44389;51.578;5.456;2023-08-20T08:13:39;0.00;;;0.00;;
58621;SDS011;44389;51.578;5.456;2023-08-20T08:16:04;0.00;;;0.00;;
58621;SDS011;44389;51.578;5.456;2023-08-20T08:18:30;0.00;;;0.00;;
58621;SDS011;44389;51.578;5.456;2023-08-20T08:20:55;0.00;;;0.00;;
58621;SDS011;44389;51.578;5.456;2023-08-20T08:23:20;0.00;;;0.00;;
58621;SDS011;44389;51.578;5.456;2023-08-20T08:25:46;0.00;;;0.00;;
58621;SDS011;44389;51.578;5.456;2023-08-20T08:28:11;0.00;;;0.00;;
58621;SDS011;44389;51.578;5.456;2023-08-20T08:30:37;0.08;;;0.08;;
58621;SDS011;44389;51.578;5.456;2023-08-20T08:33:03;0.00;;;0.00;;
58621;SDS011;44389;51.578;5.456;2023-08-20T08:35:29;0.00;;;0.00;;
58621;SDS011;44389;51.578;5.456;2023-08-20T08:37:54;0.00;;;0.00;;
58621;SDS011;44389;51.578;5.456;2023-08-20T08:40:20;0.00;;;0.00;;
58621;SDS011;44389;51.578;5.456;2023-08-20T08:42:47;0.00;;;0.00;;
58621;SDS011;44389;51.578;5.456;2023-08-20T08:45:14;0.00;;;0.00;;
58621;SDS011;44389;51.578;5.456;2023-08-20T08:47:42;0.00;;;0.00;;
58621;SDS011;44389;51.578;5.456;2023-08-20T08:50:08;0.00;;;0.00;;
58621;SDS011;44389;51.578;5.456;2023-08-20T08:52:35;0.00;;;0.00;;
58621;SDS011;44389;51.578;5.456;2023-08-20T08:55:03;0.00;;;0.00;;
58621;SDS011;44389;51.578;5.456;2023-08-20T08:57:30;0.00;;;0.00;;
58621;SDS011;44389;51.578;5.456;2023-08-20T08:59:56;0.00;;;0.00;;
58621;SDS011;44389;51.578;5.456;2023-08-20T09:02:21;0.00;;;0.00;;
58621;SDS011;44389;51.578;5.456;2023-08-20T09:04:48;0.00;;;0.00;;
58621;SDS011;44389;51.578;5.456;2023-08-20T09:07:13;0.00;;;0.00;;
58621;SDS011;44389;51.578;5.456;2023-08-20T09:09:43;0.00;;;0.00;;
58621;SDS011;44389;51.578;5.456;2023-08-20T09:12:16;0.00;;;0.00;;
58621;SDS011;44389;51.578;5.456;2023-08-20T09:14:43;0.00;;;0.00;;
58621;SDS011;44389;51.578;5.456;2023-08-20T09:17:15;0.00;;;0.00;;
58621;SDS011;44389;51.578;5.456;2023-08-20T09:19:42;0.00;;;0.00;;
58621;SDS011;44389;51.578;5.456;2023-08-20T09:22:10;0.00;;;0.00;;
58621;SDS011;44389;51.578;5.456;2023-08-20T09:27:07;0.00;;;0.00;;
58621;SDS011;44389;51.578;5.456;2023-08-20T09:29:33;0.00;;;0.00;;
58621;SDS011;44389;51.578;5.456;2023-08-20T09:32:08;0.00;;;0.00;;
58621;SDS011;44389;51.578;5.456;2023-08-20T09:34:38;0.00;;;0.00;;
58621;SDS011;44389;51.578;5.456;2023-08-20T09:37:13;0.00;;;0.00;;
58621;SDS011;44389;51.578;5.456;2023-08-20T09:39:39;0.00;;;0.00;;
58621;SDS011;44389;51.578;5.456;2023-08-20T09:42:06;0.00;;;0.00;;
58621;SDS011;44389;51.578;5.456;2023-08-20T09:44:36;0.00;;;0.00;;
58621;SDS011;44389;51.578;5.456;2023-08-20T09:47:05;0.00;;;0.00;;
58621;SDS011;44389;51.578;5.456;2023-08-20T09:49:32;0.00;;;0.00;;
58621;SDS011;44389;51.578;5.456;2023-08-20T09:52:06;0.00;;;0.00;;
58621;SDS011;44389;51.578;5.456;2023-08-20T09:57:14;0.00;;;0.00;;
58621;SDS011;44389;51.578;5.456;2023-08-20T09:59:51;0.00;;;0.00;;
58621;SDS011;44389;51.578;5.456;2023-08-20T10:02:17;0.00;;;0.00;;
58621;SDS011;44389;51.578;5.456;2023-08-20T10:04:44;0.00;;;0.00;;
58621;SDS011;44389;51.578;5.456;2023-08-20T10:07:10;0.00;;;0.00;;
58621;SDS011;44389;51.578;5.456;2023-08-20T10:09:37;0.00;;;0.00;;
58621;SDS011;44389;51.578;5.456;2023-08-20T10:12:04;0.00;;;0.00;;
58621;SDS011;44389;51.578;5.456;2023-08-20T10:14:30;0.00;;;0.00;;
58621;SDS011;44389;51.578;5.456;2023-08-20T10:16:55;0.00;;;0.00;;
58621;SDS011;44389;51.578;5.456;2023-08-20T10:19:21;0.00;;;0.00;;
58621;SDS011;44389;51.578;5.456;2023-08-20T10:24:17;0.00;;;0.00;;
58621;SDS011;44389;51.578;5.456;2023-08-20T10:26:46;0.00;;;0.00;;
58621;SDS011;44389;51.578;5.456;2023-08-20T10:32:14;0.00;;;0.00;;
58621;SDS011;44389;51.578;5.456;2023-08-20T10:34:43;0.00;;;0.00;;
58621;SDS011;44389;51.578;5.456;2023-08-20T10:37:14;0.00;;;0.00;;
58621;SDS011;44389;51.578;5.456;2023-08-20T10:39:40;0.00;;;0.00;;
58621;SDS011;44389;51.578;5.456;2023-08-20T10:44:57;0.00;;;0.00;;
58621;SDS011;44389;51.578;5.456;2023-08-20T10:47:25;0.00;;;0.00;;
58621;SDS011;44389;51.578;5.456;2023-08-20T10:50:00;0.00;;;0.00;;
58621;SDS011;44389;51.578;5.456;2023-08-20T10:52:27;0.00;;;0.00;;
58621;SDS011;44389;51.578;5.456;2023-08-20T10:54:52;0.00;;;0.00;;
58621;SDS011;44389;51.578;5.456;2023-08-20T10:57:18;0.00;;;0.00;;
58621;SDS011;44389;51.578;5.456;2023-08-20T10:59:55;0.00;;;0.00;;
58621;SDS011;44389;51.578;5.456;2023-08-20T11:02:26;0.00;;;0.00;;
58621;SDS011;44389;51.578;5.456;2023-08-20T11:04:52;0.00;;;0.00;;
58621;SDS011;44389;51.578;5.456;2023-08-20T11:07:18;0.00;;;0.00;;
58621;SDS011;44389;51.578;5.456;2023-08-20T11:09:45;0.00;;;0.00;;
58621;SDS011;44389;51.578;5.456;2023-08-20T11:12:14;0.00;;;0.00;;
58621;SDS011;44389;51.578;5.456;2023-08-20T11:14:40;0.00;;;0.00;;
58621;SDS011;44389;51.578;5.456;2023-08-20T11:17:05;0.00;;;0.00;;
58621;SDS011;44389;51.578;5.456;2023-08-20T11:19:32;0.00;;;0.00;;
58621;SDS011;44389;51.578;5.456;2023-08-20T11:21:58;0.00;;;0.00;;
58621;SDS011;44389;51.578;5.456;2023-08-20T11:24:24;0.00;;;0.00;;
58621;SDS011;44389;51.578;5.456;2023-08-20T11:26:53;0.00;;;0.00;;
58621;SDS011;44389;51.578;5.456;2023-08-20T11:29:20;0.00;;;0.00;;
58621;SDS011;44389;51.578;5.456;2023-08-20T11:31:46;0.00;;;0.00;;
58621;SDS011;44389;51.578;5.456;2023-08-20T11:34:12;0.00;;;0.00;;
58621;SDS011;44389;51.578;5.456;2023-08-20T11:36:40;0.00;;;0.00;;
58621;SDS011;44389;51.578;5.456;2023-08-20T11:39:06;0.00;;;0.00;;
58621;SDS011;44389;51.578;5.456;2023-08-20T11:41:35;0.00;;;0.00;;
58621;SDS011;44389;51.578;5.456;2023-08-20T11:44:01;0.00;;;0.00;;
58621;SDS011;44389;51.578;5.456;2023-08-20T11:46:28;0.00;;;0.00;;
58621;SDS011;44389;51.578;5.456;2023-08-20T11:49:00;0.00;;;0.00;;
58621;SDS011;44389;51.578;5.456;2023-08-20T11:51:29;0.00;;;0.00;;
58621;SDS011;44389;51.578;5.456;2023-08-20T11:53:55;0.00;;;0.00;;
58621;SDS011;44389;51.578;5.456;2023-08-20T11:56:22;0.00;;;0.00;;
58621;SDS011;44389;51.578;5.456;2023-08-20T11:58:50;0.00;;;0.00;;
58621;SDS011;44389;51.578;5.456;2023-08-20T12:01:17;0.00;;;0.00;;
58621;SDS011;44389;51.578;5.456;2023-08-20T12:03:46;0.00;;;0.00;;
58621;SDS011;44389;51.578;5.456;2023-08-20T12:06:21;0.20;;;0.10;;
58621;SDS011;44389;51.578;5.456;2023-08-20T12:08:50;0.00;;;0.00;;
58621;SDS011;44389;51.578;5.456;2023-08-20T12:11:15;0.00;;;0.00;;
58621;SDS011;44389;51.578;5.456;2023-08-20T12:13:40;0.00;;;0.00;;
58621;SDS011;44389;51.578;5.456;2023-08-20T12:16:06;0.00;;;0.00;;
58621;SDS011;44389;51.578;5.456;2023-08-20T12:18:32;0.00;;;0.00;;
58621;SDS011;44389;51.578;5.456;2023-08-20T12:20:57;0.00;;;0.00;;
58621;SDS011;44389;51.578;5.456;2023-08-20T12:23:22;0.00;;;0.00;;
58621;SDS011;44389;51.578;5.456;2023-08-20T12:25:51;0.00;;;0.00;;
58621;SDS011;44389;51.578;5.456;2023-08-20T12:28:17;0.00;;;0.00;;
58621;SDS011;44389;51.578;5.456;2023-08-20T12:30:43;0.00;;;0.00;;
58621;SDS011;44389;51.578;5.456;2023-08-20T12:33:09;0.00;;;0.00;;
58621;SDS011;44389;51.578;5.456;2023-08-20T12:35:34;0.00;;;0.00;;
58621;SDS011;44389;51.578;5.456;2023-08-20T12:38:00;0.00;;;0.00;;
58621;SDS011;44389;51.578;5.456;2023-08-20T12:40:25;0.00;;;0.00;;
58621;SDS011;44389;51.578;5.456;2023-08-20T12:42:51;0.00;;;0.00;;
58621;SDS011;44389;51.578;5.456;2023-08-20T12:45:16;0.00;;;0.00;;
58621;SDS011;44389;51.578;5.456;2023-08-20T12:47:42;0.00;;;0.00;;
58621;SDS011;44389;51.578;5.456;2023-08-20T12:50:07;0.00;;;0.00;;
58621;SDS011;44389;51.578;5.456;2023-08-20T12:52:33;0.00;;;0.00;;
58621;SDS011;44389;51.578;5.456;2023-08-20T12:54:58;0.00;;;0.00;;
58621;SDS011;44389;51.578;5.456;2023-08-20T12:57:24;0.00;;;0.00;;
58621;SDS011;44389;51.578;5.456;2023-08-20T12:59:49;0.00;;;0.00;;
58621;SDS011;44389;51.578;5.456;2023-08-20T13:02:15;0.00;;;0.00;;
58621;SDS011;44389;51.578;5.456;2023-08-20T13:04:40;0.00;;;0.00;;
58621;SDS011;44389;51.578;5.456;2023-08-20T13:07:06;0.00;;;0.00;;
58621;SDS011;44389;51.578;5.456;2023-08-20T13:09:32;0.00;;;0.00;;
58621;SDS011;44389;51.578;5.456;2023-08-20T13:11:57;0.00;;;0.00;;
58621;SDS011;44389;51.578;5.456;2023-08-20T13:14:28;0.00;;;0.00;;
58621;SDS011;44389;51.578;5.456;2023-08-20T13:16:54;0.00;;;0.00;;
58621;SDS011;44389;51.578;5.456;2023-08-20T13:19:21;0.00;;;0.00;;
58621;SDS011;44389;51.578;5.456;2023-08-20T13:21:47;0.00;;;0.00;;
58621;SDS011;44389;51.578;5.456;2023-08-20T13:24:12;0.00;;;0.00;;
58621;SDS011;44389;51.578;5.456;2023-08-20T13:26:38;0.00;;;0.00;;
58621;SDS011;44389;51.578;5.456;2023-08-20T13:29:03;0.00;;;0.00;;
58621;SDS011;44389;51.578;5.456;2023-08-20T13:31:28;0.00;;;0.00;;
58621;SDS011;44389;51.578;5.456;2023-08-20T13:33:53;0.00;;;0.00;;
58621;SDS011;44389;51.578;5.456;2023-08-20T13:36:19;0.00;;;0.00;;
58621;SDS011;44389;51.578;5.456;2023-08-20T13:38:44;0.00;;;0.00;;
58621;SDS011;44389;51.578;5.456;2023-08-20T13:41:10;0.00;;;0.00;;
58621;SDS011;44389;51.578;5.456;2023-08-20T13:43:35;0.00;;;0.00;;
58621;SDS011;44389;51.578;5.456;2023-08-20T13:46:00;0.00;;;0.00;;
58621;SDS011;44389;51.578;5.456;2023-08-20T13:48:26;0.00;;;0.00;;
58621;SDS011;44389;51.578;5.456;2023-08-20T13:50:51;0.00;;;0.00;;
58621;SDS011;44389;51.578;5.456;2023-08-20T13:53:16;0.00;;;0.00;;
58621;SDS011;44389;51.578;5.456;2023-08-20T13:55:41;0.00;;;0.00;;
58621;SDS011;44389;51.578;5.456;2023-08-20T13:58:07;0.00;;;0.00;;
58621;SDS011;44389;51.578;5.456;2023-08-20T14:00:32;0.00;;;0.00;;
58621;SDS011;44389;51.578;5.456;2023-08-20T14:02:58;0.00;;;0.00;;
58621;SDS011;44389;51.578;5.456;2023-08-20T14:05:23;0.00;;;0.00;;
58621;SDS011;44389;51.578;5.456;2023-08-20T14:07:49;0.00;;;0.00;;
58621;SDS011;44389;51.578;5.456;2023-08-20T14:10:15;0.00;;;0.00;;
58621;SDS011;44389;51.578;5.456;2023-08-20T14:12:40;0.00;;;0.00;;
58621;SDS011;44389;51.578;5.456;2023-08-20T14:15:06;0.00;;;0.00;;
58621;SDS011;44389;51.578;5.456;2023-08-20T14:17:32;0.00;;;0.00;;
58621;SDS011;44389;51.578;5.456;2023-08-20T14:19:57;0.00;;;0.00;;
58621;SDS011;44389;51.578;5.456;2023-08-20T14:22:23;0.00;;;0.00;;
58621;SDS011;44389;51.578;5.456;2023-08-20T14:24:48;0.00;;;0.00;;
58621;SDS011;44389;51.578;5.456;2023-08-20T14:27:13;0.00;;;0.00;;
58621;SDS011;44389;51.578;5.456;2023-08-20T14:29:40;0.00;;;0.00;;
58621;SDS011;44389;51.578;5.456;2023-08-20T14:32:05;0.00;;;0.00;;
58621;SDS011;44389;51.578;5.456;2023-08-20T14:34:31;0.00;;;0.00;;
58621;SDS011;44389;51.578;5.456;2023-08-20T14:36:56;0.00;;;0.00;;
58621;SDS011;44389;51.578;5.456;2023-08-20T14:39:21;0.00;;;0.00;;
58621;SDS011;44389;51.578;5.456;2023-08-20T14:41:47;0.00;;;0.00;;
58621;SDS011;44389;51.578;5.456;2023-08-20T14:44:12;0.00;;;0.00;;
58621;SDS011;44389;51.578;5.456;2023-08-20T14:46:37;0.00;;;0.00;;
58621;SDS011;44389;51.578;5.456;2023-08-20T14:49:03;0.00;;;0.00;;
58621;SDS011;44389;51.578;5.456;2023-08-20T14:51:28;0.00;;;0.00;;
58621;SDS011;44389;51.578;5.456;2023-08-20T14:53:54;0.00;;;0.00;;
58621;SDS011;44389;51.578;5.456;2023-08-20T14:56:19;0.00;;;0.00;;
58621;SDS011;44389;51.578;5.456;2023-08-20T14:58:44;0.00;;;0.00;;
58621;SDS011;44389;51.578;5.456;2023-08-20T15:01:10;0.00;;;0.00;;
58621;SDS011;44389;51.578;5.456;2023-08-20T15:03:35;0.00;;;0.00;;
58621;SDS011;44389;51.578;5.456;2023-08-20T15:06:00;0.00;;;0.00;;
58621;SDS011;44389;51.578;5.456;2023-08-20T15:08:26;0.00;;;0.00;;